sensor_id;sensor_type;location;lat;lon;timestamp;temperature;humidity
78345;DHT22;67620;51.134;6.548;2023-05-10T00:01:50;14.70;83.80
78345;DHT22;67620;51.134;6.548;2023-05-10T00:04:16;14.70;83.80
78345;DHT22;67620;51.134;6.548;2023-05-10T00:06:41;14.70;83.90
78345;DHT22;67620;51.134;6.548;2023-05-10T00:09:07;14.70;83.90
78345;DHT22;67620;51.134;6.548;2023-05-10T00:11:32;14.70;83.80
78345;DHT22;67620;51.134;6.548;2023-05-10T00:13:58;14.60;84.00
78345;DHT22;67620;51.134;6.548;2023-05-10T00:16:23;14.60;84.00
78345;DHT22;67620;51.134;6.548;2023-05-10T00:18:49;14.60;83.40
78345;DHT22;67620;51.134;6.548;2023-05-10T00:21:14;14.60;83.50
78345;DHT22;67620;51.134;6.548;2023-05-10T00:23:40;14.60;83.60
78345;DHT22;67620;51.134;6.548;2023-05-10T00:26:05;14.60;83.20
78345;DHT22;67620;51.134;6.548;2023-05-10T00:28:31;14.60;83.70
78345;DHT22;67620;51.134;6.548;2023-05-10T00:30:56;14.60;83.40
78345;DHT22;67620;51.134;6.548;2023-05-10T00:33:22;14.60;83.60
78345;DHT22;67620;51.134;6.548;2023-05-10T00:35:48;14.60;83.40
78345;DHT22;67620;51.134;6.548;2023-05-10T00:38:13;14.60;83.40
78345;DHT22;67620;51.134;6.548;2023-05-10T00:40:39;14.60;83.20
78345;DHT22;67620;51.134;6.548;2023-05-10T00:43:05;14.60;83.20
78345;DHT22;67620;51.134;6.548;2023-05-10T00:45:32;14.60;83.30
78345;DHT22;67620;51.134;6.548;2023-05-10T00:48:00;14.50;83.80
78345;DHT22;67620;51.134;6.548;2023-05-10T00:50:26;14.50;84.10
78345;DHT22;67620;51.134;6.548;2023-05-10T00:52:52;14.50;83.70
78345;DHT22;67620;51.134;6.548;2023-05-10T00:55:18;14.50;83.80
78345;DHT22;67620;51.134;6.548;2023-05-10T00:57:43;14.60;83.70
78345;DHT22;67620;51.134;6.548;2023-05-10T01:00:10;14.60;83.50
78345;DHT22;67620;51.134;6.548;2023-05-10T01:02:36;14.60;83.50
78345;DHT22;67620;51.134;6.548;2023-05-10T01:05:02;14.50;83.60
78345;DHT22;67620;51.134;6.548;2023-05-10T01:07:31;14.60;83.20
78345;DHT22;67620;51.134;6.548;2023-05-10T01:09:57;14.50;83.50
78345;DHT22;67620;51.134;6.548;2023-05-10T01:12:23;14.50;83.40
78345;DHT22;67620;51.134;6.548;2023-05-10T01:14:48;14.50;83.40
78345;DHT22;67620;51.134;6.548;2023-05-10T01:17:14;14.50;83.40
78345;DHT22;67620;51.134;6.548;2023-05-10T01:19:41;14.50;83.60
78345;DHT22;67620;51.134;6.548;2023-05-10T01:22:14;14.40;83.40
78345;DHT22;67620;51.134;6.548;2023-05-10T01:27:42;14.40;83.70
78345;DHT22;67620;51.134;6.548;2023-05-10T01:33:34;14.40;83.40
78345;DHT22;67620;51.134;6.548;2023-05-10T01:36:31;14.30;83.40
78345;DHT22;67620;51.134;6.548;2023-05-10T01:39:11;14.40;83.40
78345;DHT22;67620;51.134;6.548;2023-05-10T01:41:49;14.30;83.60
78345;DHT22;67620;51.134;6.548;2023-05-10T01:46:48;14.40;83.50
78345;DHT22;67620;51.134;6.548;2023-05-10T01:49:29;14.40;83.10
78345;DHT22;67620;51.134;6.548;2023-05-10T01:52:00;14.30;83.40
78345;DHT22;67620;51.134;6.548;2023-05-10T01:54:27;14.30;83.40
78345;DHT22;67620;51.134;6.548;2023-05-10T01:57:01;14.30;83.60
78345;DHT22;67620;51.134;6.548;2023-05-10T01:59:31;14.20;83.70
78345;DHT22;67620;51.134;6.548;2023-05-10T02:02:01;14.20;83.60
78345;DHT22;67620;51.134;6.548;2023-05-10T02:04:28;14.20;83.90
78345;DHT22;67620;51.134;6.548;2023-05-10T02:06:55;14.30;83.90
78345;DHT22;67620;51.134;6.548;2023-05-10T02:09:22;14.30;83.70
78345;DHT22;67620;51.134;6.548;2023-05-10T02:11:50;14.30;84.20
78345;DHT22;67620;51.134;6.548;2023-05-10T02:14:16;14.30;83.90
78345;DHT22;67620;51.134;6.548;2023-05-10T02:16:43;14.30;84.20
78345;DHT22;67620;51.134;6.548;2023-05-10T02:19:10;14.30;83.70
78345;DHT22;67620;51.134;6.548;2023-05-10T02:21:38;14.30;83.90
78345;DHT22;67620;51.134;6.548;2023-05-10T02:24:04;14.30;83.40
78345;DHT22;67620;51.134;6.548;2023-05-10T02:26:31;14.30;83.80
78345;DHT22;67620;51.134;6.548;2023-05-10T02:28:58;14.30;83.70
78345;DHT22;67620;51.134;6.548;2023-05-10T02:31:24;14.30;83.70
78345;DHT22;67620;51.134;6.548;2023-05-10T02:33:50;14.30;83.50
78345;DHT22;67620;51.134;6.548;2023-05-10T02:36:16;14.30;83.90
78345;DHT22;67620;51.134;6.548;2023-05-10T02:38:43;14.30;83.60
78345;DHT22;67620;51.134;6.548;2023-05-10T02:41:10;14.30;83.60
78345;DHT22;67620;51.134;6.548;2023-05-10T02:43:37;14.30;83.30
78345;DHT22;67620;51.134;6.548;2023-05-10T02:46:03;14.20;83.10
78345;DHT22;67620;51.134;6.548;2023-05-10T02:48:29;14.10;83.60
78345;DHT22;67620;51.134;6.548;2023-05-10T02:50:56;14.10;83.60
78345;DHT22;67620;51.134;6.548;2023-05-10T02:53:31;14.10;83.80
78345;DHT22;67620;51.134;6.548;2023-05-10T02:55:59;14.10;84.00
78345;DHT22;67620;51.134;6.548;2023-05-10T02:58:25;14.10;83.90
78345;DHT22;67620;51.134;6.548;2023-05-10T03:00:52;14.10;84.20
78345;DHT22;67620;51.134;6.548;2023-05-10T03:03:17;14.20;84.20
78345;DHT22;67620;51.134;6.548;2023-05-10T03:05:43;14.20;84.20
78345;DHT22;67620;51.134;6.548;2023-05-10T03:08:09;14.20;84.30
78345;DHT22;67620;51.134;6.548;2023-05-10T03:10:40;14.20;84.30
78345;DHT22;67620;51.134;6.548;2023-05-10T03:16:08;14.20;84.30
78345;DHT22;67620;51.134;6.548;2023-05-10T03:18:50;14.20;84.50
78345;DHT22;67620;51.134;6.548;2023-05-10T03:21:22;14.10;84.30
78345;DHT22;67620;51.134;6.548;2023-05-10T03:23:59;14.20;84.60
78345;DHT22;67620;51.134;6.548;2023-05-10T03:26:27;14.20;84.30
78345;DHT22;67620;51.134;6.548;2023-05-10T03:28:54;14.10;84.80
78345;DHT22;67620;51.134;6.548;2023-05-10T03:31:20;14.20;84.70
78345;DHT22;67620;51.134;6.548;2023-05-10T03:33:51;14.10;84.90
78345;DHT22;67620;51.134;6.548;2023-05-10T03:36:17;14.10;85.20
78345;DHT22;67620;51.134;6.548;2023-05-10T03:38:43;14.10;85.30
78345;DHT22;67620;51.134;6.548;2023-05-10T03:41:08;14.10;85.20
78345;DHT22;67620;51.134;6.548;2023-05-10T03:43:34;14.10;85.40
78345;DHT22;67620;51.134;6.548;2023-05-10T03:46:02;14.10;85.50
78345;DHT22;67620;51.134;6.548;2023-05-10T03:48:28;14.20;85.30
78345;DHT22;67620;51.134;6.548;2023-05-10T03:50:53;14.20;85.30
78345;DHT22;67620;51.134;6.548;2023-05-10T03:53:19;14.20;85.20
78345;DHT22;67620;51.134;6.548;2023-05-10T03:55:44;14.20;85.60
78345;DHT22;67620;51.134;6.548;2023-05-10T03:58:13;14.20;85.50
78345;DHT22;67620;51.134;6.548;2023-05-10T04:00:38;14.20;85.10
78345;DHT22;67620;51.134;6.548;2023-05-10T04:03:09;14.20;85.10
78345;DHT22;67620;51.134;6.548;2023-05-10T04:05:35;14.20;85.10
78345;DHT22;67620;51.134;6.548;2023-05-10T04:08:01;14.20;85.40
78345;DHT22;67620;51.134;6.548;2023-05-10T04:10:27;14.10;85.90
78345;DHT22;67620;51.134;6.548;2023-05-10T04:12:52;14.10;85.90
78345;DHT22;67620;51.134;6.548;2023-05-10T04:15:18;14.20;85.80
78345;DHT22;67620;51.134;6.548;2023-05-10T04:17:43;14.20;85.70
78345;DHT22;67620;51.134;6.548;2023-05-10T04:20:10;14.20;85.70
78345;DHT22;67620;51.134;6.548;2023-05-10T04:22:35;14.10;85.40
78345;DHT22;67620;51.134;6.548;2023-05-10T04:25:01;14.10;85.90
78345;DHT22;67620;51.134;6.548;2023-05-10T04:27:26;14.20;85.60
78345;DHT22;67620;51.134;6.548;2023-05-10T04:29:52;14.10;86.00
78345;DHT22;67620;51.134;6.548;2023-05-10T04:32:17;14.10;85.90
78345;DHT22;67620;51.134;6.548;2023-05-10T04:34:44;14.10;85.30
78345;DHT22;67620;51.134;6.548;2023-05-10T04:37:09;14.20;85.10
78345;DHT22;67620;51.134;6.548;2023-05-10T04:39:35;14.20;85.00
78345;DHT22;67620;51.134;6.548;2023-05-10T04:42:02;14.20;85.00
78345;DHT22;67620;51.134;6.548;2023-05-10T04:44:28;14.10;84.70
78345;DHT22;67620;51.134;6.548;2023-05-10T04:46:54;14.10;84.50
78345;DHT22;67620;51.134;6.548;2023-05-10T04:49:20;14.10;84.20
78345;DHT22;67620;51.134;6.548;2023-05-10T04:51:46;14.10;84.50
78345;DHT22;67620;51.134;6.548;2023-05-10T04:54:11;14.10;84.70
78345;DHT22;67620;51.134;6.548;2023-05-10T04:56:37;14.10;84.40
78345;DHT22;67620;51.134;6.548;2023-05-10T04:59:02;14.10;84.30
78345;DHT22;67620;51.134;6.548;2023-05-10T05:01:28;14.10;84.20
78345;DHT22;67620;51.134;6.548;2023-05-10T05:03:53;14.10;83.50
78345;DHT22;67620;51.134;6.548;2023-05-10T05:06:19;14.10;83.90
78345;DHT22;67620;51.134;6.548;2023-05-10T05:08:46;14.20;84.10
78345;DHT22;67620;51.134;6.548;2023-05-10T05:11:11;14.20;84.00
78345;DHT22;67620;51.134;6.548;2023-05-10T05:13:37;14.20;83.90
78345;DHT22;67620;51.134;6.548;2023-05-10T05:16:03;14.10;83.80
78345;DHT22;67620;51.134;6.548;2023-05-10T05:18:28;14.10;83.90
78345;DHT22;67620;51.134;6.548;2023-05-10T05:20:54;14.10;83.60
78345;DHT22;67620;51.134;6.548;2023-05-10T05:23:20;14.10;84.10
78345;DHT22;67620;51.134;6.548;2023-05-10T05:25:46;14.10;84.00
78345;DHT22;67620;51.134;6.548;2023-05-10T05:28:11;14.10;84.20
78345;DHT22;67620;51.134;6.548;2023-05-10T05:30:37;14.10;84.00
78345;DHT22;67620;51.134;6.548;2023-05-10T05:33:03;14.10;84.00
78345;DHT22;67620;51.134;6.548;2023-05-10T05:35:29;14.10;84.00
78345;DHT22;67620;51.134;6.548;2023-05-10T05:37:54;14.10;84.00
78345;DHT22;67620;51.134;6.548;2023-05-10T05:40:21;14.00;84.00
78345;DHT22;67620;51.134;6.548;2023-05-10T05:42:46;14.00;84.00
78345;DHT22;67620;51.134;6.548;2023-05-10T05:45:12;14.00;84.20
78345;DHT22;67620;51.134;6.548;2023-05-10T05:47:40;14.00;84.00
78345;DHT22;67620;51.134;6.548;2023-05-10T05:50:06;14.10;84.40
78345;DHT22;67620;51.134;6.548;2023-05-10T05:52:32;14.10;84.20
78345;DHT22;67620;51.134;6.548;2023-05-10T05:54:57;14.10;83.80
78345;DHT22;67620;51.134;6.548;2023-05-10T05:57:23;14.10;83.70
78345;DHT22;67620;51.134;6.548;2023-05-10T05:59:48;14.00;84.10
78345;DHT22;67620;51.134;6.548;2023-05-10T06:02:14;14.00;84.50
78345;DHT22;67620;51.134;6.548;2023-05-10T06:04:39;14.00;84.90
78345;DHT22;67620;51.134;6.548;2023-05-10T06:07:05;14.00;85.00
78345;DHT22;67620;51.134;6.548;2023-05-10T06:09:31;14.00;85.30
78345;DHT22;67620;51.134;6.548;2023-05-10T06:11:56;14.00;85.40
78345;DHT22;67620;51.134;6.548;2023-05-10T06:14:22;14.10;85.10
78345;DHT22;67620;51.134;6.548;2023-05-10T06:16:48;14.10;85.20
78345;DHT22;67620;51.134;6.548;2023-05-10T06:19:13;14.10;85.00
78345;DHT22;67620;51.134;6.548;2023-05-10T06:21:39;14.10;84.50
78345;DHT22;67620;51.134;6.548;2023-05-10T06:24:05;14.10;84.40
78345;DHT22;67620;51.134;6.548;2023-05-10T06:26:32;14.10;84.60
78345;DHT22;67620;51.134;6.548;2023-05-10T06:28:57;14.10;84.70
78345;DHT22;67620;51.134;6.548;2023-05-10T06:31:23;14.00;84.90
78345;DHT22;67620;51.134;6.548;2023-05-10T06:33:48;14.00;85.40
78345;DHT22;67620;51.134;6.548;2023-05-10T06:36:14;14.10;85.10
78345;DHT22;67620;51.134;6.548;2023-05-10T06:38:39;14.10;85.00
78345;DHT22;67620;51.134;6.548;2023-05-10T06:41:05;14.10;85.40
78345;DHT22;67620;51.134;6.548;2023-05-10T06:43:31;14.20;85.60
78345;DHT22;67620;51.134;6.548;2023-05-10T06:45:56;14.20;85.30
78345;DHT22;67620;51.134;6.548;2023-05-10T06:48:22;14.20;85.50
78345;DHT22;67620;51.134;6.548;2023-05-10T06:50:48;14.20;86.10
78345;DHT22;67620;51.134;6.548;2023-05-10T06:53:13;14.20;85.60
78345;DHT22;67620;51.134;6.548;2023-05-10T06:55:40;14.20;85.60
78345;DHT22;67620;51.134;6.548;2023-05-10T06:58:05;14.20;85.20
78345;DHT22;67620;51.134;6.548;2023-05-10T07:00:31;14.20;85.60
78345;DHT22;67620;51.134;6.548;2023-05-10T07:02:56;14.10;85.40
78345;DHT22;67620;51.134;6.548;2023-05-10T07:05:22;14.10;85.60
78345;DHT22;67620;51.134;6.548;2023-05-10T07:07:47;14.10;85.50
78345;DHT22;67620;51.134;6.548;2023-05-10T07:10:13;14.10;85.20
78345;DHT22;67620;51.134;6.548;2023-05-10T07:12:39;14.10;84.90
78345;DHT22;67620;51.134;6.548;2023-05-10T07:15:05;14.10;84.60
78345;DHT22;67620;51.134;6.548;2023-05-10T07:17:31;14.10;85.10
78345;DHT22;67620;51.134;6.548;2023-05-10T07:19:58;14.10;85.30
78345;DHT22;67620;51.134;6.548;2023-05-10T07:22:24;14.10;85.40
78345;DHT22;67620;51.134;6.548;2023-05-10T07:24:50;14.20;85.40
78345;DHT22;67620;51.134;6.548;2023-05-10T07:27:15;14.10;85.10
78345;DHT22;67620;51.134;6.548;2023-05-10T07:29:40;14.10;84.50
78345;DHT22;67620;51.134;6.548;2023-05-10T07:32:06;14.10;84.90
78345;DHT22;67620;51.134;6.548;2023-05-10T07:34:32;14.10;84.90
78345;DHT22;67620;51.134;6.548;2023-05-10T07:37:00;14.10;84.90
78345;DHT22;67620;51.134;6.548;2023-05-10T07:39:27;14.20;84.70
78345;DHT22;67620;51.134;6.548;2023-05-10T07:41:53;14.20;84.10
78345;DHT22;67620;51.134;6.548;2023-05-10T07:44:18;14.30;83.80
78345;DHT22;67620;51.134;6.548;2023-05-10T07:46:45;14.30;84.20
78345;DHT22;67620;51.134;6.548;2023-05-10T07:49:11;14.40;84.30
78345;DHT22;67620;51.134;6.548;2023-05-10T07:51:37;14.40;83.50
78345;DHT22;67620;51.134;6.548;2023-05-10T07:54:02;14.60;84.30
78345;DHT22;67620;51.134;6.548;2023-05-10T07:56:30;14.70;83.20
78345;DHT22;67620;51.134;6.548;2023-05-10T07:58:57;14.70;82.50
78345;DHT22;67620;51.134;6.548;2023-05-10T08:01:23;14.90;82.00
78345;DHT22;67620;51.134;6.548;2023-05-10T08:03:49;15.00;82.00
78345;DHT22;67620;51.134;6.548;2023-05-10T08:06:17;15.00;83.20
78345;DHT22;67620;51.134;6.548;2023-05-10T08:08:43;15.00;82.70
78345;DHT22;67620;51.134;6.548;2023-05-10T08:11:08;14.90;82.70
78345;DHT22;67620;51.134;6.548;2023-05-10T08:13:34;14.90;82.40
78345;DHT22;67620;51.134;6.548;2023-05-10T08:16:00;14.80;81.60
78345;DHT22;67620;51.134;6.548;2023-05-10T08:18:25;14.70;82.60
78345;DHT22;67620;51.134;6.548;2023-05-10T08:20:51;14.70;82.50
78345;DHT22;67620;51.134;6.548;2023-05-10T08:23:16;14.70;82.20
78345;DHT22;67620;51.134;6.548;2023-05-10T08:25:42;14.60;81.60
78345;DHT22;67620;51.134;6.548;2023-05-10T08:28:07;14.60;81.80
78345;DHT22;67620;51.134;6.548;2023-05-10T08:30:33;14.50;82.10
78345;DHT22;67620;51.134;6.548;2023-05-10T08:32:58;14.60;82.10
78345;DHT22;67620;51.134;6.548;2023-05-10T08:35:24;14.60;81.60
78345;DHT22;67620;51.134;6.548;2023-05-10T08:37:51;14.60;82.10
78345;DHT22;67620;51.134;6.548;2023-05-10T08:40:19;14.60;82.20
78345;DHT22;67620;51.134;6.548;2023-05-10T08:43:06;14.60;81.10
78345;DHT22;67620;51.134;6.548;2023-05-10T08:45:45;14.60;81.10
78345;DHT22;67620;51.134;6.548;2023-05-10T08:48:12;14.60;79.60
78345;DHT22;67620;51.134;6.548;2023-05-10T08:50:39;14.60;79.20
78345;DHT22;67620;51.134;6.548;2023-05-10T08:53:06;14.60;80.00
78345;DHT22;67620;51.134;6.548;2023-05-10T08:55:34;14.60;80.40
78345;DHT22;67620;51.134;6.548;2023-05-10T08:58:02;14.60;80.00
78345;DHT22;67620;51.134;6.548;2023-05-10T09:00:28;14.60;80.10
78345;DHT22;67620;51.134;6.548;2023-05-10T09:02:54;14.60;80.20
78345;DHT22;67620;51.134;6.548;2023-05-10T09:05:20;14.60;80.50
78345;DHT22;67620;51.134;6.548;2023-05-10T09:07:45;14.60;81.20
78345;DHT22;67620;51.134;6.548;2023-05-10T09:10:11;14.70;80.90
78345;DHT22;67620;51.134;6.548;2023-05-10T09:12:37;14.70;80.10
78345;DHT22;67620;51.134;6.548;2023-05-10T09:15:04;14.70;80.70
78345;DHT22;67620;51.134;6.548;2023-05-10T09:17:31;14.70;80.90
78345;DHT22;67620;51.134;6.548;2023-05-10T09:20:03;14.80;80.20
78345;DHT22;67620;51.134;6.548;2023-05-10T09:22:33;14.70;80.30
78345;DHT22;67620;51.134;6.548;2023-05-10T09:25:09;14.80;79.80
78345;DHT22;67620;51.134;6.548;2023-05-10T09:27:36;14.80;79.50
78345;DHT22;67620;51.134;6.548;2023-05-10T09:30:03;14.70;79.40
78345;DHT22;67620;51.134;6.548;2023-05-10T09:32:40;14.80;79.50
78345;DHT22;67620;51.134;6.548;2023-05-10T09:35:09;14.90;79.80
78345;DHT22;67620;51.134;6.548;2023-05-10T09:37:36;15.00;80.30
78345;DHT22;67620;51.134;6.548;2023-05-10T09:40:04;15.00;79.80
78345;DHT22;67620;51.134;6.548;2023-05-10T09:42:31;15.00;79.80
78345;DHT22;67620;51.134;6.548;2023-05-10T09:45:00;15.00;80.10
78345;DHT22;67620;51.134;6.548;2023-05-10T09:47:26;15.00;80.90
78345;DHT22;67620;51.134;6.548;2023-05-10T09:49:52;15.10;80.30
78345;DHT22;67620;51.134;6.548;2023-05-10T09:52:20;15.10;79.60
78345;DHT22;67620;51.134;6.548;2023-05-10T09:54:52;15.10;79.40
78345;DHT22;67620;51.134;6.548;2023-05-10T09:57:22;15.20;79.80
78345;DHT22;67620;51.134;6.548;2023-05-10T09:59:48;15.30;79.70
78345;DHT22;67620;51.134;6.548;2023-05-10T10:02:13;15.40;79.60
78345;DHT22;67620;51.134;6.548;2023-05-10T10:04:40;15.30;77.80
78345;DHT22;67620;51.134;6.548;2023-05-10T10:07:05;15.30;77.90
78345;DHT22;67620;51.134;6.548;2023-05-10T10:09:32;15.20;78.30
78345;DHT22;67620;51.134;6.548;2023-05-10T10:11:59;15.20;78.80
78345;DHT22;67620;51.134;6.548;2023-05-10T10:14:25;15.10;78.50
78345;DHT22;67620;51.134;6.548;2023-05-10T10:16:53;15.20;79.10
78345;DHT22;67620;51.134;6.548;2023-05-10T10:19:19;15.20;79.50
78345;DHT22;67620;51.134;6.548;2023-05-10T10:21:49;15.30;78.30
78345;DHT22;67620;51.134;6.548;2023-05-10T10:24:14;15.40;77.90
78345;DHT22;67620;51.134;6.548;2023-05-10T10:26:40;15.40;78.40
78345;DHT22;67620;51.134;6.548;2023-05-10T10:29:36;15.40;78.60
78345;DHT22;67620;51.134;6.548;2023-05-10T10:32:26;15.40;77.30
78345;DHT22;67620;51.134;6.548;2023-05-10T10:34:54;15.50;78.50
78345;DHT22;67620;51.134;6.548;2023-05-10T10:37:20;15.50;77.50
78345;DHT22;67620;51.134;6.548;2023-05-10T10:39:47;15.40;76.80
78345;DHT22;67620;51.134;6.548;2023-05-10T10:42:13;15.50;76.40
78345;DHT22;67620;51.134;6.548;2023-05-10T10:44:38;15.50;76.10
78345;DHT22;67620;51.134;6.548;2023-05-10T10:54:59;15.50;77.20
78345;DHT22;67620;51.134;6.548;2023-05-10T10:57:26;15.60;77.20
78345;DHT22;67620;51.134;6.548;2023-05-10T11:00:03;15.50;76.90
78345;DHT22;67620;51.134;6.548;2023-05-10T11:05:33;15.50;76.70
78345;DHT22;67620;51.134;6.548;2023-05-10T11:08:10;15.50;77.00
78345;DHT22;67620;51.134;6.548;2023-05-10T11:10:36;15.60;76.50
78345;DHT22;67620;51.134;6.548;2023-05-10T11:13:03;15.60;75.70
78345;DHT22;67620;51.134;6.548;2023-05-10T11:15:37;15.50;76.60
78345;DHT22;67620;51.134;6.548;2023-05-10T11:18:20;15.60;76.80
78345;DHT22;67620;51.134;6.548;2023-05-10T11:23:18;15.60;75.50
78345;DHT22;67620;51.134;6.548;2023-05-10T11:25:45;15.50;75.90
78345;DHT22;67620;51.134;6.548;2023-05-10T11:28:12;15.50;75.90
78345;DHT22;67620;51.134;6.548;2023-05-10T11:30:43;15.40;76.00
78345;DHT22;67620;51.134;6.548;2023-05-10T11:33:09;15.40;78.20
78345;DHT22;67620;51.134;6.548;2023-05-10T11:35:40;15.40;77.70
78345;DHT22;67620;51.134;6.548;2023-05-10T11:38:10;15.40;77.00
78345;DHT22;67620;51.134;6.548;2023-05-10T11:40:36;15.40;78.10
78345;DHT22;67620;51.134;6.548;2023-05-10T11:43:02;15.40;78.60
78345;DHT22;67620;51.134;6.548;2023-05-10T11:45:28;15.40;78.40
78345;DHT22;67620;51.134;6.548;2023-05-10T11:47:55;15.40;77.00
78345;DHT22;67620;51.134;6.548;2023-05-10T11:50:22;15.40;77.20
78345;DHT22;67620;51.134;6.548;2023-05-10T11:52:52;15.40;77.30
78345;DHT22;67620;51.134;6.548;2023-05-10T11:55:18;15.50;76.50
78345;DHT22;67620;51.134;6.548;2023-05-10T11:57:44;15.50;77.20
78345;DHT22;67620;51.134;6.548;2023-05-10T12:00:12;15.60;76.30
78345;DHT22;67620;51.134;6.548;2023-05-10T12:02:37;15.60;76.70
78345;DHT22;67620;51.134;6.548;2023-05-10T12:05:03;15.60;77.10
78345;DHT22;67620;51.134;6.548;2023-05-10T12:07:29;15.70;77.30
78345;DHT22;67620;51.134;6.548;2023-05-10T12:10:05;15.70;77.40
78345;DHT22;67620;51.134;6.548;2023-05-10T12:12:38;15.70;76.60
78345;DHT22;67620;51.134;6.548;2023-05-10T12:15:05;15.80;77.00
78345;DHT22;67620;51.134;6.548;2023-05-10T12:17:31;15.80;76.70
78345;DHT22;67620;51.134;6.548;2023-05-10T12:20:13;15.80;77.20
78345;DHT22;67620;51.134;6.548;2023-05-10T12:22:39;15.80;77.20
78345;DHT22;67620;51.134;6.548;2023-05-10T12:25:06;15.70;75.60
78345;DHT22;67620;51.134;6.548;2023-05-10T12:27:33;15.60;75.40
78345;DHT22;67620;51.134;6.548;2023-05-10T12:29:59;15.60;76.20
78345;DHT22;67620;51.134;6.548;2023-05-10T12:32:37;15.70;76.90
78345;DHT22;67620;51.134;6.548;2023-05-10T12:35:04;15.70;76.80
78345;DHT22;67620;51.134;6.548;2023-05-10T12:37:29;15.70;78.70
78345;DHT22;67620;51.134;6.548;2023-05-10T12:39:55;15.70;79.00
78345;DHT22;67620;51.134;6.548;2023-05-10T12:42:20;15.70;80.20
78345;DHT22;67620;51.134;6.548;2023-05-10T12:44:46;15.70;80.00
78345;DHT22;67620;51.134;6.548;2023-05-10T12:47:11;15.60;80.00
78345;DHT22;67620;51.134;6.548;2023-05-10T12:49:37;15.60;79.80
78345;DHT22;67620;51.134;6.548;2023-05-10T12:52:02;15.60;80.60
78345;DHT22;67620;51.134;6.548;2023-05-10T12:54:28;15.50;80.10
78345;DHT22;67620;51.134;6.548;2023-05-10T12:56:53;15.50;80.20
78345;DHT22;67620;51.134;6.548;2023-05-10T12:59:19;15.60;80.60
78345;DHT22;67620;51.134;6.548;2023-05-10T13:01:45;15.60;80.30
78345;DHT22;67620;51.134;6.548;2023-05-10T13:04:10;15.60;80.40
78345;DHT22;67620;51.134;6.548;2023-05-10T13:06:36;15.70;80.60
78345;DHT22;67620;51.134;6.548;2023-05-10T13:09:01;15.60;79.90
78345;DHT22;67620;51.134;6.548;2023-05-10T13:11:27;15.70;79.80
78345;DHT22;67620;51.134;6.548;2023-05-10T13:13:53;15.60;79.80
78345;DHT22;67620;51.134;6.548;2023-05-10T13:16:18;15.60;80.70
78345;DHT22;67620;51.134;6.548;2023-05-10T13:18:44;15.70;80.50
78345;DHT22;67620;51.134;6.548;2023-05-10T13:21:09;15.60;80.20
78345;DHT22;67620;51.134;6.548;2023-05-10T13:23:35;15.60;79.90
78345;DHT22;67620;51.134;6.548;2023-05-10T13:26:00;15.70;79.30
78345;DHT22;67620;51.134;6.548;2023-05-10T13:28:26;15.60;78.10
78345;DHT22;67620;51.134;6.548;2023-05-10T13:30:51;15.60;78.70
78345;DHT22;67620;51.134;6.548;2023-05-10T13:33:17;15.60;77.90
78345;DHT22;67620;51.134;6.548;2023-05-10T13:35:43;15.70;77.90
78345;DHT22;67620;51.134;6.548;2023-05-10T13:38:08;15.70;77.20
78345;DHT22;67620;51.134;6.548;2023-05-10T13:40:34;15.70;75.50
78345;DHT22;67620;51.134;6.548;2023-05-10T13:43:01;15.70;76.80
78345;DHT22;67620;51.134;6.548;2023-05-10T13:45:27;15.70;77.90
78345;DHT22;67620;51.134;6.548;2023-05-10T13:47:52;15.80;77.90
78345;DHT22;67620;51.134;6.548;2023-05-10T13:50:18;15.80;78.50
78345;DHT22;67620;51.134;6.548;2023-05-10T13:52:43;15.80;77.30
78345;DHT22;67620;51.134;6.548;2023-05-10T13:55:09;15.70;75.90
78345;DHT22;67620;51.134;6.548;2023-05-10T13:57:35;15.70;75.90
78345;DHT22;67620;51.134;6.548;2023-05-10T14:00:01;15.70;76.60
78345;DHT22;67620;51.134;6.548;2023-05-10T14:02:27;15.70;77.20
78345;DHT22;67620;51.134;6.548;2023-05-10T14:04:52;15.80;78.00
78345;DHT22;67620;51.134;6.548;2023-05-10T14:07:18;15.80;75.40
78345;DHT22;67620;51.134;6.548;2023-05-10T14:09:43;15.80;75.40
78345;DHT22;67620;51.134;6.548;2023-05-10T14:12:09;15.80;75.20
78345;DHT22;67620;51.134;6.548;2023-05-10T14:14:34;15.80;74.10
78345;DHT22;67620;51.134;6.548;2023-05-10T14:17:00;15.80;74.70
78345;DHT22;67620;51.134;6.548;2023-05-10T14:19:25;15.90;74.80
78345;DHT22;67620;51.134;6.548;2023-05-10T14:21:52;15.90;74.60
78345;DHT22;67620;51.134;6.548;2023-05-10T14:24:17;16.00;74.40
78345;DHT22;67620;51.134;6.548;2023-05-10T14:26:43;16.00;74.10
78345;DHT22;67620;51.134;6.548;2023-05-10T14:29:08;16.00;72.10
78345;DHT22;67620;51.134;6.548;2023-05-10T14:31:34;16.00;74.50
78345;DHT22;67620;51.134;6.548;2023-05-10T14:34:00;16.00;73.70
78345;DHT22;67620;51.134;6.548;2023-05-10T14:36:25;16.00;72.60
78345;DHT22;67620;51.134;6.548;2023-05-10T14:38:51;16.10;74.40
78345;DHT22;67620;51.134;6.548;2023-05-10T14:41:17;16.10;74.30
78345;DHT22;67620;51.134;6.548;2023-05-10T14:43:43;16.10;73.90
78345;DHT22;67620;51.134;6.548;2023-05-10T14:46:08;16.20;75.00
78345;DHT22;67620;51.134;6.548;2023-05-10T14:48:34;16.20;74.70
78345;DHT22;67620;51.134;6.548;2023-05-10T14:51:00;16.30;74.70
78345;DHT22;67620;51.134;6.548;2023-05-10T14:53:25;16.40;72.90
78345;DHT22;67620;51.134;6.548;2023-05-10T14:55:51;16.30;74.20
78345;DHT22;67620;51.134;6.548;2023-05-10T14:58:17;16.30;72.30
78345;DHT22;67620;51.134;6.548;2023-05-10T15:00:43;16.30;73.80
78345;DHT22;67620;51.134;6.548;2023-05-10T15:03:08;16.30;74.30
78345;DHT22;67620;51.134;6.548;2023-05-10T15:05:34;16.30;73.10
78345;DHT22;67620;51.134;6.548;2023-05-10T15:08:02;16.30;72.90
78345;DHT22;67620;51.134;6.548;2023-05-10T15:10:28;16.30;72.80
78345;DHT22;67620;51.134;6.548;2023-05-10T15:12:53;16.30;73.40
78345;DHT22;67620;51.134;6.548;2023-05-10T15:15:19;16.30;72.30
78345;DHT22;67620;51.134;6.548;2023-05-10T15:17:44;16.30;74.00
78345;DHT22;67620;51.134;6.548;2023-05-10T15:20:10;16.30;73.10
78345;DHT22;67620;51.134;6.548;2023-05-10T15:22:36;16.30;72.40
78345;DHT22;67620;51.134;6.548;2023-05-10T15:25:01;16.30;73.30
78345;DHT22;67620;51.134;6.548;2023-05-10T15:27:27;16.20;72.90
78345;DHT22;67620;51.134;6.548;2023-05-10T15:29:53;16.20;73.30
78345;DHT22;67620;51.134;6.548;2023-05-10T15:32:18;16.20;72.80
78345;DHT22;67620;51.134;6.548;2023-05-10T15:34:44;16.20;73.30
78345;DHT22;67620;51.134;6.548;2023-05-10T15:37:09;16.30;73.40
78345;DHT22;67620;51.134;6.548;2023-05-10T15:39:35;16.20;73.70
78345;DHT22;67620;51.134;6.548;2023-05-10T15:42:00;16.30;73.20
78345;DHT22;67620;51.134;6.548;2023-05-10T15:44:26;16.20;73.50
78345;DHT22;67620;51.134;6.548;2023-05-10T15:46:52;16.30;73.50
78345;DHT22;67620;51.134;6.548;2023-05-10T15:49:17;16.30;74.50
78345;DHT22;67620;51.134;6.548;2023-05-10T15:51:43;16.20;74.90
78345;DHT22;67620;51.134;6.548;2023-05-10T15:54:08;16.20;74.10